sensor_id;sensor_type;location;lat;lon;timestamp;pressure;altitude;pressure_sealevel;temperature;humidity
20145;BME280;10233;50.814;6.590;2023-12-20T00:00:30;100235.38;;;8.70;100.00
20145;BME280;10233;50.814;6.590;2023-12-20T00:01:31;100237.78;;;8.65;100.00
20145;BME280;10233;50.814;6.590;2023-12-20T00:02:31;100229.28;;;8.69;100.00
20145;BME280;10233;50.814;6.590;2023-12-20T00:03:32;100227.84;;;8.67;100.00
20145;BME280;10233;50.814;6.590;2023-12-20T00:04:32;100230.91;;;8.70;100.00
20145;BME280;10233;50.814;6.590;2023-12-20T00:05:33;100225.00;;;8.68;100.00
20145;BME280;10233;50.814;6.590;2023-12-20T00:06:33;100228.28;;;8.70;100.00
20145;BME280;10233;50.814;6.590;2023-12-20T00:07:34;100219.13;;;8.73;100.00
20145;BME280;10233;50.814;6.590;2023-12-20T00:08:34;100214.84;;;8.72;100.00
20145;BME280;10233;50.814;6.590;2023-12-20T00:09:34;100225.00;;;8.68;100.00
20145;BME280;10233;50.814;6.590;2023-12-20T00:10:35;100222.72;;;8.65;100.00
20145;BME280;10233;50.814;6.590;2023-12-20T00:11:35;100220.25;;;8.64;100.00
20145;BME280;10233;50.814;6.590;2023-12-20T00:12:36;100215.28;;;8.75;100.00
20145;BME280;10233;50.814;6.590;2023-12-20T00:13:36;100217.50;;;8.72;100.00
20145;BME280;10233;50.814;6.590;2023-12-20T00:14:37;100222.97;;;8.70;100.00
20145;BME280;10233;50.814;6.590;2023-12-20T00:15:37;100224.00;;;8.69;100.00
20145;BME280;10233;50.814;6.590;2023-12-20T00:16:37;100221.72;;;8.66;100.00
20145;BME280;10233;50.814;6.590;2023-12-20T00:17:38;100218.44;;;8.64;100.00
20145;BME280;10233;50.814;6.590;2023-12-20T00:18:38;100225.38;;;8.65;100.00
20145;BME280;10233;50.814;6.590;2023-12-20T00:19:39;100228.81;;;8.66;100.00
20145;BME280;10233;50.814;6.590;2023-12-20T00:20:39;100237.00;;;8.64;100.00
20145;BME280;10233;50.814;6.590;2023-12-20T00:21:40;100244.47;;;8.61;100.00
20145;BME280;10233;50.814;6.590;2023-12-20T00:22:40;100248.13;;;8.60;100.00
20145;BME280;10233;50.814;6.590;2023-12-20T00:23:42;100249.97;;;8.59;100.00
20145;BME280;10233;50.814;6.590;2023-12-20T00:24:42;100242.22;;;8.58;100.00
20145;BME280;10233;50.814;6.590;2023-12-20T00:25:43;100250.78;;;8.60;100.00
20145;BME280;10233;50.814;6.590;2023-12-20T00:26:43;100243.78;;;8.52;100.00
20145;BME280;10233;50.814;6.590;2023-12-20T00:27:44;100244.78;;;8.51;100.00
20145;BME280;10233;50.814;6.590;2023-12-20T00:28:44;100238.13;;;8.55;100.00
20145;BME280;10233;50.814;6.590;2023-12-20T00:29:45;100240.94;;;8.54;100.00
20145;BME280;10233;50.814;6.590;2023-12-20T00:30:48;100235.66;;;8.54;100.00
20145;BME280;10233;50.814;6.590;2023-12-20T00:31:48;100239.69;;;8.50;100.00
20145;BME280;10233;50.814;6.590;2023-12-20T00:32:49;100246.00;;;8.49;100.00
20145;BME280;10233;50.814;6.590;2023-12-20T00:33:49;100239.69;;;8.50;100.00
20145;BME280;10233;50.814;6.590;2023-12-20T00:34:49;100239.88;;;8.48;100.00
20145;BME280;10233;50.814;6.590;2023-12-20T00:35:50;100239.25;;;8.46;100.00
20145;BME280;10233;50.814;6.590;2023-12-20T00:36:50;100234.56;;;8.48;100.00
20145;BME280;10233;50.814;6.590;2023-12-20T00:37:51;100234.81;;;8.53;100.00
20145;BME280;10233;50.814;6.590;2023-12-20T00:38:51;100234.03;;;8.53;100.00
20145;BME280;10233;50.814;6.590;2023-12-20T00:39:52;100235.84;;;8.52;100.00
20145;BME280;10233;50.814;6.590;2023-12-20T00:40:52;100241.31;;;8.51;100.00
20145;BME280;10233;50.814;6.590;2023-12-20T00:41:53;100240.50;;;8.50;100.00
20145;BME280;10233;50.814;6.590;2023-12-20T00:42:53;100240.34;;;8.52;100.00
20145;BME280;10233;50.814;6.590;2023-12-20T00:43:53;100247.00;;;8.48;100.00
20145;BME280;10233;50.814;6.590;2023-12-20T00:44:54;100247.00;;;8.48;100.00
20145;BME280;10233;50.814;6.590;2023-12-20T00:45:54;100243.72;;;8.46;100.00
20145;BME280;10233;50.814;6.590;2023-12-20T00:46:55;100241.91;;;8.46;100.00
20145;BME280;10233;50.814;6.590;2023-12-20T00:47:56;100250.84;;;8.45;100.00
20145;BME280;10233;50.814;6.590;2023-12-20T00:48:56;100255.13;;;8.46;100.00
20145;BME280;10233;50.814;6.590;2023-12-20T00:49:57;100249.84;;;8.46;100.00
20145;BME280;10233;50.814;6.590;2023-12-20T00:50:58;100254.53;;;8.44;100.00
20145;BME280;10233;50.814;6.590;2023-12-20T00:51:58;100249.22;;;8.44;100.00
20145;BME280;10233;50.814;6.590;2023-12-20T00:52:59;100254.69;;;8.43;100.00
20145;BME280;10233;50.814;6.590;2023-12-20T00:53:59;100259.56;;;8.39;100.00
20145;BME280;10233;50.814;6.590;2023-12-20T00:54:59;100259.34;;;8.41;100.00
20145;BME280;10233;50.814;6.590;2023-12-20T00:56:00;100261.63;;;8.44;100.00
20145;BME280;10233;50.814;6.590;2023-12-20T00:57:00;100254.53;;;8.44;100.00
20145;BME280;10233;50.814;6.590;2023-12-20T00:58:01;100249.22;;;8.44;100.00
20145;BME280;10233;50.814;6.590;2023-12-20T00:59:01;100259.59;;;8.46;100.00
20145;BME280;10233;50.814;6.590;2023-12-20T01:00:02;100257.16;;;8.44;100.00
20145;BME280;10233;50.814;6.590;2023-12-20T01:01:02;100256.69;;;8.41;100.00
20145;BME280;10233;50.814;6.590;2023-12-20T01:02:03;100257.16;;;8.44;100.00
20145;BME280;10233;50.814;6.590;2023-12-20T01:03:04;100255.50;;;8.43;100.00
20145;BME280;10233;50.814;6.590;2023-12-20T01:04:04;100258.81;;;8.45;100.00
20145;BME280;10233;50.814;6.590;2023-12-20T01:05:05;100267.75;;;8.44;100.00
20145;BME280;10233;50.814;6.590;2023-12-20T01:06:05;100265.91;;;8.45;100.00
20145;BME280;10233;50.814;6.590;2023-12-20T01:07:06;100267.94;;;8.43;100.00
20145;BME280;10233;50.814;6.590;2023-12-20T01:08:06;100270.97;;;8.40;100.00
20145;BME280;10233;50.814;6.590;2023-12-20T01:09:07;100268.75;;;8.43;100.00
20145;BME280;10233;50.814;6.590;2023-12-20T01:10:08;100258.72;;;8.39;100.00
20145;BME280;10233;50.814;6.590;2023-12-20T01:11:08;100257.91;;;8.38;100.00
20145;BME280;10233;50.814;6.590;2023-12-20T01:12:09;100260.94;;;8.35;100.00
20145;BME280;10233;50.814;6.590;2023-12-20T01:13:09;100261.94;;;8.34;100.00
20145;BME280;10233;50.814;6.590;2023-12-20T01:14:09;100261.13;;;8.34;100.00
20145;BME280;10233;50.814;6.590;2023-12-20T01:15:10;100264.34;;;8.29;100.00
20145;BME280;10233;50.814;6.590;2023-12-20T01:16:11;100260.69;;;8.30;100.00
20145;BME280;10233;50.814;6.590;2023-12-20T01:17:12;100263.25;;;8.24;100.00
20145;BME280;10233;50.814;6.590;2023-12-20T01:18:13;100269.56;;;8.23;100.00
20145;BME280;10233;50.814;6.590;2023-12-20T01:19:13;100272.38;;;8.21;100.00
20145;BME280;10233;50.814;6.590;2023-12-20T01:20:15;100263.75;;;8.19;100.00
20145;BME280;10233;50.814;6.590;2023-12-20T01:21:15;100268.44;;;8.17;100.00
20145;BME280;10233;50.814;6.590;2023-12-20T01:22:15;100267.09;;;8.21;100.00
20145;BME280;10233;50.814;6.590;2023-12-20T01:23:16;100272.09;;;8.16;100.00
20145;BME280;10233;50.814;6.590;2023-12-20T01:24:18;100275.34;;;8.18;100.00
20145;BME280;10233;50.814;6.590;2023-12-20T01:25:18;100276.38;;;8.17;100.00
20145;BME280;10233;50.814;6.590;2023-12-20T01:26:19;100282.03;;;8.14;100.00
20145;BME280;10233;50.814;6.590;2023-12-20T01:27:19;100270.25;;;8.17;100.00
20145;BME280;10233;50.814;6.590;2023-12-20T01:28:20;100268.78;;;8.14;100.00
20145;BME280;10233;50.814;6.590;2023-12-20T01:29:20;100273.09;;;8.15;100.00
20145;BME280;10233;50.814;6.590;2023-12-20T01:30:21;100276.94;;;8.13;100.00
20145;BME280;10233;50.814;6.590;2023-12-20T01:31:21;100278.31;;;8.09;100.00
20145;BME280;10233;50.814;6.590;2023-12-20T01:32:22;100274.19;;;8.06;100.00
20145;BME280;10233;50.814;6.590;2023-12-20T01:33:22;100274.03;;;8.08;100.00
20145;BME280;10233;50.814;6.590;2023-12-20T01:34:22;100274.56;;;8.03;100.00
20145;BME280;10233;50.814;6.590;2023-12-20T01:35:23;100266.81;;;8.02;100.00
20145;BME280;10233;50.814;6.590;2023-12-20T01:36:23;100265.56;;;7.98;100.00
20145;BME280;10233;50.814;6.590;2023-12-20T01:37:24;100274.03;;;7.93;100.00
20145;BME280;10233;50.814;6.590;2023-12-20T01:38:25;100268.28;;;7.90;100.00
20145;BME280;10233;50.814;6.590;2023-12-20T01:39:26;100276.13;;;7.83;100.00
20145;BME280;10233;50.814;6.590;2023-12-20T01:40:27;100276.22;;;7.75;100.00
20145;BME280;10233;50.814;6.590;2023-12-20T01:41:27;100277.78;;;7.70;100.00
20145;BME280;10233;50.814;6.590;2023-12-20T01:42:27;100284.63;;;7.64;100.00
20145;BME280;10233;50.814;6.590;2023-12-20T01:43:29;100274.59;;;7.60;100.00
20145;BME280;10233;50.814;6.590;2023-12-20T01:44:29;100276.97;;;7.55;100.00
20145;BME280;10233;50.814;6.590;2023-12-20T01:45:30;100276.13;;;7.54;100.00
20145;BME280;10233;50.814;6.590;2023-12-20T01:46:30;100278.16;;;7.52;100.00
20145;BME280;10233;50.814;6.590;2023-12-20T01:47:31;100290.53;;;7.52;100.00
20145;BME280;10233;50.814;6.590;2023-12-20T01:48:31;100294.94;;;7.45;100.00
20145;BME280;10233;50.814;6.590;2023-12-20T01:49:35;100298.47;;;7.37;100.00
20145;BME280;10233;50.814;6.590;2023-12-20T01:50:36;100288.59;;;7.31;100.00
20145;BME280;10233;50.814;6.590;2023-12-20T01:51:38;100293.25;;;7.29;100.00
20145;BME280;10233;50.814;6.590;2023-12-20T01:52:39;100295.44;;;7.26;100.00
20145;BME280;10233;50.814;6.590;2023-12-20T01:53:40;100296.97;;;7.20;100.00
20145;BME280;10233;50.814;6.590;2023-12-20T01:54:42;100302.97;;;7.14;100.00
20145;BME280;10233;50.814;6.590;2023-12-20T01:55:43;100305.31;;;7.09;100.00
20145;BME280;10233;50.814;6.590;2023-12-20T01:56:44;100307.13;;;7.09;100.00
20145;BME280;10233;50.814;6.590;2023-12-20T01:57:45;100298.13;;;7.03;100.00
20145;BME280;10233;50.814;6.590;2023-12-20T01:58:48;100303.56;;;7.02;100.00
20145;BME280;10233;50.814;6.590;2023-12-20T01:59:48;100301.72;;;7.02;100.00
20145;BME280;10233;50.814;6.590;2023-12-20T02:00:49;100297.44;;;7.01;100.00
20145;BME280;10233;50.814;6.590;2023-12-20T02:01:50;100310.03;;;6.99;100.00
20145;BME280;10233;50.814;6.590;2023-12-20T02:02:52;100303.63;;;6.94;100.00
20145;BME280;10233;50.814;6.590;2023-12-20T02:03:54;100308.28;;;6.92;100.00
20145;BME280;10233;50.814;6.590;2023-12-20T02:04:55;100316.38;;;6.90;100.00
20145;BME280;10233;50.814;6.590;2023-12-20T02:05:56;100313.28;;;6.87;100.00
20145;BME280;10233;50.814;6.590;2023-12-20T02:06:57;100312.44;;;6.86;100.00
20145;BME280;10233;50.814;6.590;2023-12-20T02:07:59;100317.44;;;6.81;100.00
20145;BME280;10233;50.814;6.590;2023-12-20T02:08:59;100307.69;;;6.82;100.00
20145;BME280;10233;50.814;6.590;2023-12-20T02:10:01;100310.50;;;6.80;100.00
20145;BME280;10233;50.814;6.590;2023-12-20T02:11:02;100315.16;;;6.78;100.00
20145;BME280;10233;50.814;6.590;2023-12-20T02:12:03;100322.88;;;6.80;100.00
20145;BME280;10233;50.814;6.590;2023-12-20T02:13:03;100321.41;;;6.77;100.00
20145;BME280;10233;50.814;6.590;2023-12-20T02:14:04;100322.59;;;6.75;100.00
20145;BME280;10233;50.814;6.590;2023-12-20T02:15:05;100326.22;;;6.74;100.00
20145;BME280;10233;50.814;6.590;2023-12-20T02:16:06;100318.47;;;6.72;100.00
20145;BME280;10233;50.814;6.590;2023-12-20T02:17:07;100323.28;;;6.69;100.00
20145;BME280;10233;50.814;6.590;2023-12-20T02:18:08;100332.34;;;6.74;100.00
20145;BME280;10233;50.814;6.590;2023-12-20T02:19:13;100325.44;;;6.73;100.00
20145;BME280;10233;50.814;6.590;2023-12-20T02:20:14;100324.06;;;6.77;100.00
20145;BME280;10233;50.814;6.590;2023-12-20T02:21:15;100329.34;;;6.77;100.00
20145;BME280;10233;50.814;6.590;2023-12-20T02:22:15;100331.19;;;6.77;100.00
20145;BME280;10233;50.814;6.590;2023-12-20T02:23:16;100327.47;;;6.86;100.00
20145;BME280;10233;50.814;6.590;2023-12-20T02:24:16;100328.66;;;6.83;100.00
20145;BME280;10233;50.814;6.590;2023-12-20T02:25:17;100326.94;;;6.90;100.00
20145;BME280;10233;50.814;6.590;2023-12-20T02:26:18;100330.72;;;6.96;100.00
20145;BME280;10233;50.814;6.590;2023-12-20T02:27:19;100321.78;;;6.97;100.00
20145;BME280;10233;50.814;6.590;2023-12-20T02:28:20;100320.94;;;6.96;100.00
20145;BME280;10233;50.814;6.590;2023-12-20T02:29:21;100318.97;;;6.98;100.00
20145;BME280;10233;50.814;6.590;2023-12-20T02:30:22;100329.00;;;7.03;100.00
20145;BME280;10233;50.814;6.590;2023-12-20T02:31:23;100325.50;;;7.02;100.00
20145;BME280;10233;50.814;6.590;2023-12-20T02:32:24;100322.88;;;7.02;100.00
20145;BME280;10233;50.814;6.590;2023-12-20T02:33:28;100320.00;;;7.12;100.00
20145;BME280;10233;50.814;6.590;2023-12-20T02:34:29;100320.84;;;7.12;100.00
20145;BME280;10233;50.814;6.590;2023-12-20T02:35:29;100325.13;;;7.13;100.00
20145;BME280;10233;50.814;6.590;2023-12-20T02:36:30;100325.75;;;7.15;100.00
20145;BME280;10233;50.814;6.590;2023-12-20T02:37:30;100326.13;;;7.12;100.00
20145;BME280;10233;50.814;6.590;2023-12-20T02:38:31;100332.38;;;7.11;100.00
20145;BME280;10233;50.814;6.590;2023-12-20T02:39:31;100321.31;;;7.16;100.00
20145;BME280;10233;50.814;6.590;2023-12-20T02:40:33;100321.47;;;7.14;100.00
20145;BME280;10233;50.814;6.590;2023-12-20T02:41:33;100323.94;;;7.16;100.00
20145;BME280;10233;50.814;6.590;2023-12-20T02:42:34;100321.81;;;7.11;100.00
20145;BME280;10233;50.814;6.590;2023-12-20T02:43:34;100329.41;;;7.14;100.00
20145;BME280;10233;50.814;6.590;2023-12-20T02:44:35;100321.75;;;7.19;100.00
20145;BME280;10233;50.814;6.590;2023-12-20T02:45:36;100332.50;;;7.18;100.00
20145;BME280;10233;50.814;6.590;2023-12-20T02:46:36;100326.75;;;7.14;100.00
20145;BME280;10233;50.814;6.590;2023-12-20T02:47:37;100327.03;;;7.19;100.00
20145;BME280;10233;50.814;6.590;2023-12-20T02:48:37;100322.59;;;7.20;100.00
20145;BME280;10233;50.814;6.590;2023-12-20T02:49:38;100330.97;;;7.23;100.00
20145;BME280;10233;50.814;6.590;2023-12-20T02:50:38;100330.31;;;7.21;100.00
20145;BME280;10233;50.814;6.590;2023-12-20T02:51:39;100327.88;;;7.20;100.00
20145;BME280;10233;50.814;6.590;2023-12-20T02:52:39;100326.31;;;7.25;100.00
20145;BME280;10233;50.814;6.590;2023-12-20T02:53:40;100324.41;;;7.19;100.00
20145;BME280;10233;50.814;6.590;2023-12-20T02:54:40;100328.84;;;7.19;100.00
20145;BME280;10233;50.814;6.590;2023-12-20T02:55:41;100327.50;;;7.23;100.00
20145;BME280;10233;50.814;6.590;2023-12-20T02:56:41;100322.69;;;7.26;100.00
20145;BME280;10233;50.814;6.590;2023-12-20T02:57:42;100322.50;;;7.28;100.00
20145;BME280;10233;50.814;6.590;2023-12-20T02:58:42;100324.06;;;7.22;100.00
20145;BME280;10233;50.814;6.590;2023-12-20T02:59:43;100324.69;;;7.24;100.00
20145;BME280;10233;50.814;6.590;2023-12-20T03:00:43;100327.16;;;7.26;100.00
20145;BME280;10233;50.814;6.590;2023-12-20T03:01:45;100322.03;;;7.24;100.00
20145;BME280;10233;50.814;6.590;2023-12-20T03:02:46;100332.28;;;7.27;100.00
20145;BME280;10233;50.814;6.590;2023-12-20T03:03:46;100334.09;;;7.27;100.00
20145;BME280;10233;50.814;6.590;2023-12-20T03:04:47;100323.69;;;7.25;100.00
20145;BME280;10233;50.814;6.590;2023-12-20T03:05:47;100328.78;;;7.27;100.00
20145;BME280;10233;50.814;6.590;2023-12-20T03:06:47;100332.91;;;7.29;100.00
20145;BME280;10233;50.814;6.590;2023-12-20T03:07:48;100333.91;;;7.28;100.00
20145;BME280;10233;50.814;6.590;2023-12-20T03:08:48;100319.69;;;7.29;100.00
20145;BME280;10233;50.814;6.590;2023-12-20T03:09:49;100318.06;;;7.28;100.00
20145;BME280;10233;50.814;6.590;2023-12-20T03:10:49;100320.69;;;7.28;100.00
20145;BME280;10233;50.814;6.590;2023-12-20T03:11:50;100316.22;;;7.29;100.00
20145;BME280;10233;50.814;6.590;2023-12-20T03:12:50;100321.16;;;7.32;100.00
20145;BME280;10233;50.814;6.590;2023-12-20T03:13:51;100306.47;;;7.29;100.00
20145;BME280;10233;50.814;6.590;2023-12-20T03:14:51;100318.69;;;7.30;100.00
20145;BME280;10233;50.814;6.590;2023-12-20T03:15:51;100308.09;;;7.30;100.00
20145;BME280;10233;50.814;6.590;2023-12-20T03:16:52;100309.56;;;7.33;100.00
20145;BME280;10233;50.814;6.590;2023-12-20T03:17:52;100308.28;;;7.29;100.00
20145;BME280;10233;50.814;6.590;2023-12-20T03:18:53;100311.41;;;7.32;100.00
20145;BME280;10233;50.814;6.590;2023-12-20T03:19:53;100314.22;;;7.31;100.00
20145;BME280;10233;50.814;6.590;2023-12-20T03:20:54;100317.50;;;7.33;100.00
20145;BME280;10233;50.814;6.590;2023-12-20T03:21:54;100322.97;;;7.31;100.00
20145;BME280;10233;50.814;6.590;2023-12-20T03:22:55;100324.44;;;7.34;100.00
20145;BME280;10233;50.814;6.590;2023-12-20T03:23:55;100317.88;;;7.30;100.00
20145;BME280;10233;50.814;6.590;2023-12-20T03:24:57;100320.53;;;7.30;100.00
20145;BME280;10233;50.814;6.590;2023-12-20T03:25:57;100324.13;;;7.29;100.00
20145;BME280;10233;50.814;6.590;2023-12-20T03:26:58;100313.56;;;7.29;100.00
20145;BME280;10233;50.814;6.590;2023-12-20T03:27:59;100314.13;;;7.24;100.00
20145;BME280;10233;50.814;6.590;2023-12-20T03:28:59;100314.94;;;7.25;100.00
20145;BME280;10233;50.814;6.590;2023-12-20T03:30:00;100315.28;;;7.22;100.00
20145;BME280;10233;50.814;6.590;2023-12-20T03:31:00;100312.47;;;7.23;100.00
20145;BME280;10233;50.814;6.590;2023-12-20T03:32:02;100308.38;;;7.21;100.00
20145;BME280;10233;50.814;6.590;2023-12-20T03:33:03;100305.63;;;7.29;100.00
20145;BME280;10233;50.814;6.590;2023-12-20T03:34:03;100309.13;;;7.29;100.00
20145;BME280;10233;50.814;6.590;2023-12-20T03:35:04;100303.53;;;7.24;100.00
20145;BME280;10233;50.814;6.590;2023-12-20T03:36:05;100315.13;;;7.23;100.00
20145;BME280;10233;50.814;6.590;2023-12-20T03:37:05;100320.59;;;7.22;100.00
20145;BME280;10233;50.814;6.590;2023-12-20T03:38:06;100314.47;;;7.21;100.00
20145;BME280;10233;50.814;6.590;2023-12-20T03:39:06;100319.75;;;7.21;100.00
20145;BME280;10233;50.814;6.590;2023-12-20T03:40:07;100319.41;;;7.24;100.00
20145;BME280;10233;50.814;6.590;2023-12-20T03:41:08;100321.59;;;7.21;100.00
20145;BME280;10233;50.814;6.590;2023-12-20T03:42:08;100318.78;;;7.22;100.00
20145;BME280;10233;50.814;6.590;2023-12-20T03:43:09;100313.78;;;7.27;100.00
20145;BME280;10233;50.814;6.590;2023-12-20T03:44:09;100330.31;;;7.21;100.00
20145;BME280;10233;50.814;6.590;2023-12-20T03:45:10;100314.28;;;7.23;100.00
20145;BME280;10233;50.814;6.590;2023-12-20T03:46:10;100320.13;;;7.18;100.00
20145;BME280;10233;50.814;6.590;2023-12-20T03:47:11;100307.19;;;7.23;100.00
20145;BME280;10233;50.814;6.590;2023-12-20T03:48:12;100300.44;;;7.21;100.00
20145;BME280;10233;50.814;6.590;2023-12-20T03:49:12;100307.81;;;7.25;100.00
20145;BME280;10233;50.814;6.590;2023-12-20T03:50:12;100306.34;;;7.23;100.00
20145;BME280;10233;50.814;6.590;2023-12-20T03:51:13;100302.25;;;7.20;100.00
20145;BME280;10233;50.814;6.590;2023-12-20T03:52:13;100310.34;;;7.19;100.00
20145;BME280;10233;50.814;6.590;2023-12-20T03:53:14;100304.25;;;7.18;100.00
20145;BME280;10233;50.814;6.590;2023-12-20T03:54:14;100307.25;;;7.15;100.00
20145;BME280;10233;50.814;6.590;2023-12-20T03:55:15;100300.97;;;7.16;100.00
20145;BME280;10233;50.814;6.590;2023-12-20T03:56:15;100291.78;;;7.12;100.00
20145;BME280;10233;50.814;6.590;2023-12-20T03:57:16;100296.84;;;7.14;100.00
20145;BME280;10233;50.814;6.590;2023-12-20T03:58:16;100295.66;;;7.16;100.00
20145;BME280;10233;50.814;6.590;2023-12-20T03:59:17;100301.63;;;7.18;100.00
20145;BME280;10233;50.814;6.590;2023-12-20T04:00:18;100295.31;;;7.19;100.00
20145;BME280;10233;50.814;6.590;2023-12-20T04:01:18;100297.34;;;7.17;100.00
20145;BME280;10233;50.814;6.590;2023-12-20T04:02:19;100296.16;;;7.20;100.00
20145;BME280;10233;50.814;6.590;2023-12-20T04:03:19;100299.16;;;7.17;100.00
20145;BME280;10233;50.814;6.590;2023-12-20T04:04:20;100299.31;;;7.15;100.00
20145;BME280;10233;50.814;6.590;2023-12-20T04:05:20;100290.94;;;7.12;100.00
20145;BME280;10233;50.814;6.590;2023-12-20T04:06:20;100288.47;;;7.10;100.00
20145;BME280;10233;50.814;6.590;2023-12-20T04:07:21;100289.19;;;7.04;100.00
20145;BME280;10233;50.814;6.590;2023-12-20T04:08:21;100286.88;;;7.01;100.00
20145;BME280;10233;50.814;6.590;2023-12-20T04:09:22;100292.00;;;7.03;100.00
20145;BME280;10233;50.814;6.590;2023-12-20T04:10:22;100303.75;;;7.00;100.00
20145;BME280;10233;50.814;6.590;2023-12-20T04:11:23;100313.47;;;7.00;100.00
20145;BME280;10233;50.814;6.590;2023-12-20T04:12:23;100307.84;;;7.03;100.00
20145;BME280;10233;50.814;6.590;2023-12-20T04:13:23;100320.78;;;6.98;100.00
20145;BME280;10233;50.814;6.590;2023-12-20T04:14:24;100312.69;;;6.99;100.00
20145;BME280;10233;50.814;6.590;2023-12-20T04:15:25;100309.66;;;7.02;100.00
20145;BME280;10233;50.814;6.590;2023-12-20T04:16:25;100305.56;;;7.00;100.00
20145;BME280;10233;50.814;6.590;2023-12-20T04:17:33;100298.63;;;6.99;100.00
20145;BME280;10233;50.814;6.590;2023-12-20T04:18:34;100303.56;;;7.02;100.00
20145;BME280;10233;50.814;6.590;2023-12-20T04:19:39;100291.16;;;7.02;100.00
20145;BME280;10233;50.814;6.590;2023-12-20T04:20:40;100290.47;;;7.08;100.00
20145;BME280;10233;50.814;6.590;2023-12-20T04:21:46;100296.28;;;7.04;100.00
20145;BME280;10233;50.814;6.590;2023-12-20T04:22:47;100289.00;;;7.06;100.00
20145;BME280;10233;50.814;6.590;2023-12-20T04:23:50;100299.38;;;7.07;100.00
20145;BME280;10233;50.814;6.590;2023-12-20T04:24:51;100307.50;;;7.06;100.00
20145;BME280;10233;50.814;6.590;2023-12-20T04:25:51;100304.31;;;7.10;100.00
20145;BME280;10233;50.814;6.590;2023-12-20T04:26:52;100298.41;;;7.08;100.00
20145;BME280;10233;50.814;6.590;2023-12-20T04:27:52;100294.75;;;7.09;100.00
20145;BME280;10233;50.814;6.590;2023-12-20T04:28:53;100294.94;;;7.08;100.00
20145;BME280;10233;50.814;6.590;2023-12-20T04:29:53;100298.56;;;7.07;100.00
20145;BME280;10233;50.814;6.590;2023-12-20T04:30:53;100301.56;;;7.04;100.00
20145;BME280;10233;50.814;6.590;2023-12-20T04:31:54;100301.94;;;7.01;100.00
20145;BME280;10233;50.814;6.590;2023-12-20T04:32:54;100306.03;;;7.03;100.00
20145;BME280;10233;50.814;6.590;2023-12-20T04:33:55;100300.09;;;7.01;100.00
20145;BME280;10233;50.814;6.590;2023-12-20T04:34:55;100302.28;;;6.98;100.00
20145;BME280;10233;50.814;6.590;2023-12-20T04:35:56;100306.38;;;7.00;100.00
20145;BME280;10233;50.814;6.590;2023-12-20T04:36:57;100306.22;;;7.02;100.00
20145;BME280;10233;50.814;6.590;2023-12-20T04:37:58;100307.03;;;7.02;100.00
20145;BME280;10233;50.814;6.590;2023-12-20T04:38:58;100315.78;;;7.03;100.00
20145;BME280;10233;50.814;6.590;2023-12-20T04:40:00;100314.59;;;7.05;100.00
20145;BME280;10233;50.814;6.590;2023-12-20T04:41:00;100307.69;;;7.04;100.00
20145;BME280;10233;50.814;6.590;2023-12-20T04:42:00;100316.41;;;7.05;100.00
20145;BME280;10233;50.814;6.590;2023-12-20T04:43:01;100323.16;;;7.07;100.00
20145;BME280;10233;50.814;6.590;2023-12-20T04:44:01;100325.34;;;7.04;100.00
20145;BME280;10233;50.814;6.590;2023-12-20T04:45:02;100330.00;;;7.02;100.00
20145;BME280;10233;50.814;6.590;2023-12-20T04:46:03;100334.75;;;7.06;100.00
20145;BME280;10233;50.814;6.590;2023-12-20T04:47:03;100329.00;;;7.03;100.00
20145;BME280;10233;50.814;6.590;2023-12-20T04:48:04;100321.53;;;7.06;100.00
20145;BME280;10233;50.814;6.590;2023-12-20T04:49:05;100330.81;;;7.02;100.00
20145;BME280;10233;50.814;6.590;2023-12-20T04:50:06;100332.47;;;7.03;100.00
20145;BME280;10233;50.814;6.590;2023-12-20T04:51:06;100340.41;;;7.03;100.00
20145;BME280;10233;50.814;6.590;2023-12-20T04:52:07;100340.41;;;7.03;100.00
20145;BME280;10233;50.814;6.590;2023-12-20T04:53:07;100331.81;;;7.01;100.00
20145;BME280;10233;50.814;6.590;2023-12-20T04:54:08;100329.00;;;7.03;100.00
20145;BME280;10233;50.814;6.590;2023-12-20T04:55:09;100320.53;;;7.07;100.00
20145;BME280;10233;50.814;6.590;2023-12-20T04:56:10;100315.16;;;7.01;100.00
20145;BME280;10233;50.814;6.590;2023-12-20T04:57:10;100325.88;;;6.99;100.00
20145;BME280;10233;50.814;6.590;2023-12-20T04:58:11;100319.59;;;7.00;100.00
20145;BME280;10233;50.814;6.590;2023-12-20T04:59:11;100320.78;;;6.98;100.00
20145;BME280;10233;50.814;6.590;2023-12-20T05:00:12;100317.50;;;6.96;100.00
20145;BME280;10233;50.814;6.590;2023-12-20T05:01:14;100322.13;;;6.94;100.00
20145;BME280;10233;50.814;6.590;2023-12-20T05:02:15;100326.34;;;7.03;100.00
20145;BME280;10233;50.814;6.590;2023-12-20T05:03:15;100325.88;;;6.99;100.00
20145;BME280;10233;50.814;6.590;2023-12-20T05:04:16;100321.78;;;6.97;100.00
20145;BME280;10233;50.814;6.590;2023-12-20T05:05:16;100316.50;;;6.97;100.00
20145;BME280;10233;50.814;6.590;2023-12-20T05:06:18;100326.22;;;6.96;100.00
20145;BME280;10233;50.814;6.590;2023-12-20T05:07:18;100327.56;;;6.92;100.00
20145;BME280;10233;50.814;6.590;2023-12-20T05:08:19;100321.66;;;6.90;100.00
20145;BME280;10233;50.814;6.590;2023-12-20T05:09:20;100324.84;;;6.86;100.00
20145;BME280;10233;50.814;6.590;2023-12-20T05:10:20;100327.28;;;6.87;100.00
20145;BME280;10233;50.814;6.590;2023-12-20T05:11:20;100322.84;;;6.88;100.00
20145;BME280;10233;50.814;6.590;2023-12-20T05:12:21;100317.72;;;6.86;100.00
20145;BME280;10233;50.814;6.590;2023-12-20T05:13:21;100325.81;;;6.85;100.00
20145;BME280;10233;50.814;6.590;2023-12-20T05:14:22;100326.66;;;6.85;100.00
20145;BME280;10233;50.814;6.590;2023-12-20T05:15:22;100326.00;;;6.83;100.00
20145;BME280;10233;50.814;6.590;2023-12-20T05:16:23;100330.28;;;6.84;100.00
20145;BME280;10233;50.814;6.590;2023-12-20T05:17:23;100329.63;;;6.82;100.00